Hauptseite
METAR-TAF:

METAR-TAF

Flughäfen :

Fliegerhorst Lechfeld

Lechfeld, Deutschland

Breite: 48-11N, Länge: 010-52E, Höhe: 555 m

Beobachtung

Neuester Wetterbericht von vor 36 Minuten, um 03:20 UTC
Wind 3 kt aus Süd
Temperatur 6°C
Luftfeuchtigkeit 87%
Luftdruck 1018 hPa
Sichtweite 10 km oder mehr

METAR: ETSL 160320Z 19003KT 9999 06/04 Q1018 BLU+

Zeit: 05:56 (03:56 UTC)

Prognose

Neuester Wetterbericht von vor 11 Stunden und 55 Minuten, um 16:01 UTC
Gültige Prognose vom 15 um 16 UTC bis 15 um 23 UTC
Wind 5 kt aus Nordost
Sichtweite 10 km oder mehr
Leicht bewölkt in der Höhe von 6000 ft
Übergehend zu
vom 15 um 17 UTC bis 15 um 20 UTC
Wind 3 kt aus Süd
Sichtweite: 1601 m
Leicht bewölkt in der Höhe von 10000 ft

TAF: ETSL 151601Z 1516/1523 04005KT 9999 NSW FEW060 BECMG 1517/1520 18003KT 8000 NSW FEW100 CANCEL 1601 BY ETGL

Wetterbeobachtungen und Prognosen von mehr als 4000 Flughäfen (METAR und TAF Bericht).

Die verfügbaren Stationen werden durch gelbe und rote Markierungen auf der Karte dargestellt.

Führen Sie die Maus auf sie, um den Namen der Station zu sehen.

Darauf klicken, um die Beobachtung von Wetterbeobachtungen und Prognosen zu sehen.

Um die Karte zu ändern : klicken Sie auf den grünen Tasten mit einem schwarzen Kreuz Zum Vergrößern, auf den grünen Button mit einem Gedankenstrich zu verkleinern, oder auf die grünen Pfeile für benachbarte Karten.


METAR-TAF: